VUE77A LEBL-EDDN
Flight info
| Callsign | VUE77A |
|---|---|
| Flight time | 1h 39m |
| Altitude | 38000 |
| Route | DALIN4F DALIN N870 DIBER DCT SECON DCT ODIXU DCT MAXIR DCT LUSOL DCT BODRU DCT OKTET DCT IRMAR DCT KINES DCT VANAS DCT MOBLO DCT UBIMA DCT SOSAL DCT KORED DCT BERSU DCT DITON DCT LOKTA DCT TEDGO N869 LETKU LETKU1V |
| Aircraft | A320/M-SDE3FGHIRWY/LB1 |
Departure
| Time | 2026-05-04 16:52 |
|---|---|
| Airport | Josep Tarradellas Barcelona-El Prat Airport (LEBL) |
Arrival
| Time | 2026-05-04 18:31 |
|---|---|
| Airport | Nuremberg Airport (EDDN) |
| Time | Latitude | Longitude | Altitude | Speed | Heading |
|---|---|---|---|---|---|
| 2026-05-04 16:09 | 41.29163 | 2.08305 | 9 ft | 0 kts | 251° |
| 2026-05-04 16:39 | 41.29164 | 2.08309 | 19 ft | 3 kts | 251° |
| 2026-05-04 16:40 | 41.29182 | 2.08376 | 22 ft | 4 kts | 250° |
| 2026-05-04 16:40 | 41.29195 | 2.08427 | 20 ft | 1 kts | 250° |
| 2026-05-04 16:41 | 41.29196 | 2.08428 | 20 ft | 0 kts | 250° |
| 2026-05-04 16:44 | 41.29170 | 2.08435 | 20 ft | 1 kts | 139° |
| 2026-05-04 16:45 | 41.29151 | 2.08504 | 20 ft | 0 kts | 147° |
| 2026-05-04 16:46 | 41.29146 | 2.08508 | 18 ft | 4 kts | 147° |
| 2026-05-04 16:47 | 41.29001 | 2.08598 | 18 ft | 15 kts | 155° |
| 2026-05-04 16:47 | 41.28872 | 2.08744 | 17 ft | 8 kts | 51° |
| 2026-05-04 16:48 | 41.28968 | 2.09038 | 18 ft | 15 kts | 66° |
| 2026-05-04 16:48 | 41.29015 | 2.09181 | 17 ft | 18 kts | 66° |
| 2026-05-04 16:49 | 41.29135 | 2.09524 | 17 ft | 22 kts | 64° |
| 2026-05-04 16:49 | 41.29272 | 2.09911 | 18 ft | 19 kts | 52° |
| 2026-05-04 16:50 | 41.29347 | 2.10112 | 16 ft | 11 kts | 68° |
| 2026-05-04 16:50 | 41.29316 | 2.10281 | 13 ft | 13 kts | 153° |
| 2026-05-04 16:51 | 41.29189 | 2.10233 | 18 ft | 11 kts | 248° |
| 2026-05-04 16:51 | 41.29130 | 2.10063 | 20 ft | 41 kts | 244° |
| 2026-05-04 16:51 | 41.28523 | 2.08296 | 25 ft | 156 kts | 245° |
| 2026-05-04 16:52 | 41.27512 | 2.06309 | 1014 ft | 156 kts | 203° |
| 2026-05-04 16:52 | 41.26445 | 2.05903 | 1475 ft | 167 kts | 187° |
| 2026-05-04 16:53 | 41.23868 | 2.05280 | 2185 ft | 211 kts | 189° |
| 2026-05-04 16:53 | 41.19464 | 2.04026 | 4731 ft | 218 kts | 192° |
| 2026-05-04 16:54 | 41.17992 | 2.03459 | 5433 ft | 229 kts | 208° |
| 2026-05-04 16:55 | 41.18805 | 1.95844 | 8748 ft | 255 kts | 309° |
| 2026-05-04 16:55 | 41.21253 | 1.92316 | 10493 ft | 260 kts | 307° |
| 2026-05-04 16:56 | 41.24064 | 1.89121 | 11814 ft | 287 kts | 326° |
| 2026-05-04 16:56 | 41.30544 | 1.88270 | 12647 ft | 364 kts | 26° |
| 2026-05-04 16:57 | 41.32536 | 1.90392 | 13273 ft | 373 kts | 51° |
| 2026-05-04 16:57 | 41.34163 | 1.96875 | 14508 ft | 378 kts | 84° |
| 2026-05-04 16:58 | 41.33699 | 2.07090 | 16333 ft | 381 kts | 112° |
| 2026-05-04 16:58 | 41.32672 | 2.10280 | 16953 ft | 380 kts | 121° |
| 2026-05-04 16:59 | 41.30187 | 2.16608 | 18194 ft | 387 kts | 121° |
| 2026-05-04 17:00 | 41.25093 | 2.29566 | 20333 ft | 403 kts | 121° |
| 2026-05-04 17:00 | 41.23059 | 2.40423 | 21784 ft | 425 kts | 80° |
| 2026-05-04 17:01 | 41.25546 | 2.47580 | 22753 ft | 433 kts | 59° |
| 2026-05-04 17:01 | 41.28613 | 2.54533 | 23682 ft | 439 kts | 59° |
| 2026-05-04 17:02 | 41.31732 | 2.61637 | 24381 ft | 454 kts | 60° |
| 2026-05-04 17:02 | 41.34950 | 2.69008 | 25124 ft | 455 kts | 59° |
| 2026-05-04 17:03 | 41.36527 | 2.72640 | 25760 ft | 452 kts | 59° |
| 2026-05-04 17:03 | 41.38098 | 2.76266 | 26237 ft | 453 kts | 59° |
| 2026-05-04 17:03 | 41.41237 | 2.83509 | 27072 ft | 457 kts | 59° |
| 2026-05-04 17:04 | 41.44441 | 2.90895 | 27861 ft | 462 kts | 59° |
| 2026-05-04 17:04 | 41.47676 | 2.98349 | 28661 ft | 467 kts | 59° |
| 2026-05-04 17:05 | 41.50936 | 3.05915 | 29430 ft | 473 kts | 59° |
| 2026-05-04 17:05 | 41.54217 | 3.13577 | 30153 ft | 478 kts | 59° |
| 2026-05-04 17:06 | 41.57567 | 3.21403 | 30780 ft | 484 kts | 60° |
| 2026-05-04 17:06 | 41.59239 | 3.25307 | 31096 ft | 486 kts | 60° |
| 2026-05-04 17:07 | 41.62591 | 3.33141 | 31986 ft | 485 kts | 60° |
| 2026-05-04 17:07 | 41.63692 | 3.35718 | 32267 ft | 485 kts | 61° |
| 2026-05-04 17:07 | 41.66277 | 3.40671 | 32826 ft | 486 kts | 45° |
| 2026-05-04 17:07 | 41.68800 | 3.43647 | 33245 ft | 485 kts | 38° |
| 2026-05-04 17:08 | 41.71597 | 3.46141 | 33630 ft | 483 kts | 27° |
| 2026-05-04 17:08 | 41.77504 | 3.50456 | 34361 ft | 484 kts | 27° |
| 2026-05-04 17:08 | 41.80505 | 3.52640 | 34760 ft | 484 kts | 26° |
| 2026-05-04 17:09 | 41.83467 | 3.54798 | 35138 ft | 483 kts | 26° |
| 2026-05-04 17:09 | 41.86413 | 3.56947 | 35518 ft | 483 kts | 26° |
| 2026-05-04 17:09 | 41.89348 | 3.59095 | 35887 ft | 482 kts | 27° |
| 2026-05-04 17:10 | 41.95268 | 3.63449 | 36614 ft | 481 kts | 26° |
| 2026-05-04 17:10 | 42.04095 | 3.69946 | 37527 ft | 480 kts | 26° |
| 2026-05-04 17:11 | 42.07035 | 3.72111 | 37782 ft | 480 kts | 26° |
| 2026-05-04 17:11 | 42.09969 | 3.74272 | 37911 ft | 481 kts | 26° |
| 2026-05-04 17:12 | 42.18866 | 3.80852 | 37912 ft | 482 kts | 27° |
| 2026-05-04 17:13 | 42.32728 | 3.91153 | 37911 ft | 483 kts | 26° |
| 2026-05-04 17:14 | 42.44610 | 4.00049 | 37926 ft | 485 kts | 27° |
| 2026-05-04 17:15 | 42.53494 | 4.06768 | 37928 ft | 485 kts | 27° |
| 2026-05-04 17:16 | 42.65347 | 4.15751 | 37932 ft | 487 kts | 27° |
| 2026-05-04 17:17 | 42.77197 | 4.24768 | 37930 ft | 488 kts | 27° |
| 2026-05-04 17:18 | 42.89133 | 4.33892 | 37936 ft | 489 kts | 27° |
| 2026-05-04 17:19 | 43.01131 | 4.43105 | 37918 ft | 491 kts | 26° |
| 2026-05-04 17:20 | 43.13136 | 4.52372 | 37945 ft | 493 kts | 26° |
| 2026-05-04 17:20 | 43.22157 | 4.59357 | 37972 ft | 494 kts | 26° |
| 2026-05-04 17:21 | 43.34207 | 4.68727 | 38002 ft | 493 kts | 26° |
| 2026-05-04 17:22 | 43.40202 | 4.73401 | 38011 ft | 493 kts | 26° |
| 2026-05-04 17:23 | 43.51228 | 4.82037 | 38020 ft | 493 kts | 26° |
| 2026-05-04 17:24 | 43.60235 | 4.89117 | 38017 ft | 492 kts | 26° |
| 2026-05-04 17:25 | 43.72181 | 4.98542 | 38018 ft | 491 kts | 26° |
| 2026-05-04 17:26 | 43.84138 | 5.08020 | 38023 ft | 489 kts | 27° |
| 2026-05-04 17:27 | 43.99067 | 5.19933 | 38029 ft | 488 kts | 27° |
| 2026-05-04 17:28 | 44.11010 | 5.29488 | 38039 ft | 487 kts | 27° |
| 2026-05-04 17:29 | 44.27865 | 5.43058 | 38045 ft | 485 kts | 27° |
| 2026-05-04 17:31 | 44.42644 | 5.55051 | 38046 ft | 484 kts | 27° |
| 2026-05-04 17:32 | 44.57421 | 5.67101 | 38041 ft | 484 kts | 27° |
| 2026-05-04 17:33 | 44.69107 | 5.76685 | 38039 ft | 484 kts | 28° |
| 2026-05-04 17:34 | 44.79961 | 5.85631 | 38040 ft | 484 kts | 27° |
| 2026-05-04 17:35 | 44.94656 | 5.97792 | 38047 ft | 485 kts | 28° |
| 2026-05-04 17:36 | 45.00585 | 6.02727 | 38060 ft | 486 kts | 28° |
| 2026-05-04 17:36 | 45.06482 | 6.07645 | 38063 ft | 486 kts | 28° |
| 2026-05-04 17:37 | 45.12429 | 6.12607 | 38075 ft | 485 kts | 28° |
| 2026-05-04 17:37 | 45.18287 | 6.17510 | 38065 ft | 485 kts | 28° |
| 2026-05-04 17:38 | 45.24058 | 6.22356 | 38060 ft | 485 kts | 28° |
| 2026-05-04 17:38 | 45.29909 | 6.27284 | 38065 ft | 485 kts | 28° |
| 2026-05-04 17:39 | 45.38649 | 6.34645 | 38065 ft | 485 kts | 28° |
| 2026-05-04 17:39 | 45.44444 | 6.39554 | 38063 ft | 484 kts | 28° |
| 2026-05-04 17:40 | 45.50226 | 6.44471 | 38066 ft | 484 kts | 28° |
| 2026-05-04 17:40 | 45.56047 | 6.49434 | 38067 ft | 484 kts | 28° |
| 2026-05-04 17:41 | 45.61766 | 6.54489 | 38066 ft | 484 kts | 30° |
| 2026-05-04 17:41 | 45.67475 | 6.59795 | 38080 ft | 484 kts | 31° |
| 2026-05-04 17:42 | 45.72175 | 6.64188 | 38078 ft | 484 kts | 30° |
| 2026-05-04 17:42 | 45.78022 | 6.69127 | 38074 ft | 479 kts | 19° |
| 2026-05-04 17:43 | 45.84398 | 6.71602 | 38073 ft | 468 kts | 1° |
| 2026-05-04 17:43 | 45.90903 | 6.71599 | 38070 ft | 462 kts | 352° |
| 2026-05-04 17:44 | 45.97376 | 6.71151 | 38065 ft | 462 kts | 352° |
| 2026-05-04 17:44 | 46.03849 | 6.70698 | 38066 ft | 462 kts | 352° |
| 2026-05-04 17:45 | 46.10334 | 6.70309 | 38058 ft | 465 kts | 356° |
| 2026-05-04 17:45 | 46.16794 | 6.71852 | 38059 ft | 473 kts | 13° |
| 2026-05-04 17:46 | 46.23204 | 6.74573 | 38055 ft | 474 kts | 13° |
| 2026-05-04 17:46 | 46.29582 | 6.77267 | 38057 ft | 474 kts | 13° |
| 2026-05-04 17:47 | 46.36038 | 6.79998 | 38056 ft | 474 kts | 13° |
| 2026-05-04 17:47 | 46.42389 | 6.82694 | 38056 ft | 474 kts | 13° |
| 2026-05-04 17:48 | 46.48761 | 6.85427 | 38058 ft | 474 kts | 13° |
| 2026-05-04 17:48 | 46.54890 | 6.89311 | 38052 ft | 479 kts | 31° |
| 2026-05-04 17:49 | 46.59908 | 6.95800 | 38047 ft | 483 kts | 50° |
| 2026-05-04 17:49 | 46.63504 | 7.02238 | 38045 ft | 483 kts | 50° |
| 2026-05-04 17:50 | 46.67695 | 7.09820 | 38041 ft | 483 kts | 50° |
| 2026-05-04 17:50 | 46.71927 | 7.17513 | 38043 ft | 483 kts | 50° |
| 2026-05-04 17:51 | 46.76181 | 7.25240 | 38046 ft | 483 kts | 50° |
| 2026-05-04 17:51 | 46.80404 | 7.32895 | 38043 ft | 482 kts | 50° |
| 2026-05-04 17:52 | 46.84579 | 7.40521 | 38045 ft | 482 kts | 50° |
| 2026-05-04 17:52 | 46.88784 | 7.48225 | 38045 ft | 481 kts | 51° |
| 2026-05-04 17:53 | 46.92938 | 7.55860 | 38045 ft | 480 kts | 51° |
| 2026-05-04 17:53 | 46.97094 | 7.63532 | 38045 ft | 480 kts | 51° |
| 2026-05-04 17:54 | 47.01230 | 7.71193 | 38045 ft | 479 kts | 51° |
| 2026-05-04 17:54 | 47.05383 | 7.78901 | 38047 ft | 478 kts | 51° |
| 2026-05-04 17:55 | 47.09559 | 7.86663 | 38048 ft | 478 kts | 51° |
| 2026-05-04 17:55 | 47.13692 | 7.94483 | 38045 ft | 478 kts | 56° |
| 2026-05-04 17:56 | 47.17276 | 8.02821 | 38046 ft | 477 kts | 58° |
| 2026-05-04 17:56 | 47.20814 | 8.11147 | 38043 ft | 477 kts | 58° |
| 2026-05-04 17:57 | 47.24290 | 8.19325 | 38042 ft | 476 kts | 58° |
| 2026-05-04 17:57 | 47.27840 | 8.27670 | 38043 ft | 476 kts | 56° |
| 2026-05-04 17:58 | 47.32175 | 8.34954 | 38028 ft | 473 kts | 38° |
| 2026-05-04 17:58 | 47.37614 | 8.40428 | 38019 ft | 471 kts | 31° |
| 2026-05-04 17:59 | 47.43137 | 8.45756 | 38015 ft | 471 kts | 32° |
| 2026-05-04 18:00 | 47.50498 | 8.52934 | 38019 ft | 470 kts | 32° |
| 2026-05-04 18:00 | 47.55952 | 8.58263 | 38020 ft | 470 kts | 32° |
| 2026-05-04 18:01 | 47.61419 | 8.63591 | 38021 ft | 470 kts | 32° |
| 2026-05-04 18:01 | 47.66903 | 8.68953 | 38025 ft | 470 kts | 32° |
| 2026-05-04 18:02 | 47.75128 | 8.77026 | 38019 ft | 469 kts | 32° |
| 2026-05-04 18:02 | 47.80598 | 8.82413 | 38012 ft | 469 kts | 32° |
| 2026-05-04 18:03 | 47.86112 | 8.87850 | 38012 ft | 469 kts | 32° |
| 2026-05-04 18:03 | 47.91598 | 8.93280 | 38007 ft | 469 kts | 32° |
| 2026-05-04 18:04 | 47.97069 | 8.98715 | 38006 ft | 470 kts | 33° |
| 2026-05-04 18:05 | 48.05307 | 9.06903 | 38008 ft | 470 kts | 33° |
| 2026-05-04 18:05 | 48.10782 | 9.12361 | 38009 ft | 470 kts | 33° |
| 2026-05-04 18:06 | 48.19619 | 9.18629 | 38003 ft | 465 kts | 13° |
| 2026-05-04 18:06 | 48.22642 | 9.20349 | 38003 ft | 467 kts | 26° |
| 2026-05-04 18:06 | 48.25538 | 9.22696 | 37995 ft | 468 kts | 28° |
| 2026-05-04 18:07 | 48.31295 | 9.27635 | 37990 ft | 469 kts | 29° |
| 2026-05-04 18:07 | 48.37025 | 9.32474 | 37987 ft | 469 kts | 28° |
| 2026-05-04 18:08 | 48.39903 | 9.34836 | 37644 ft | 472 kts | 27° |
| 2026-05-04 18:08 | 48.42809 | 9.37199 | 37356 ft | 470 kts | 27° |
| 2026-05-04 18:08 | 48.45670 | 9.39521 | 37113 ft | 471 kts | 27° |
| 2026-05-04 18:08 | 48.48561 | 9.41877 | 36772 ft | 472 kts | 27° |
| 2026-05-04 18:09 | 48.53443 | 9.45876 | 35975 ft | 473 kts | 27° |
| 2026-05-04 18:09 | 48.59259 | 9.50670 | 34832 ft | 475 kts | 28° |
| 2026-05-04 18:10 | 48.62172 | 9.53078 | 34224 ft | 475 kts | 28° |
| 2026-05-04 18:10 | 48.65135 | 9.55530 | 33559 ft | 476 kts | 28° |
| 2026-05-04 18:10 | 48.68053 | 9.57948 | 32878 ft | 478 kts | 28° |
| 2026-05-04 18:10 | 48.70977 | 9.60374 | 32215 ft | 479 kts | 28° |
| 2026-05-04 18:11 | 48.73950 | 9.62845 | 31543 ft | 481 kts | 28° |
| 2026-05-04 18:11 | 48.76920 | 9.65318 | 30917 ft | 483 kts | 28° |
| 2026-05-04 18:11 | 48.79883 | 9.67791 | 30297 ft | 485 kts | 28° |
| 2026-05-04 18:11 | 48.82874 | 9.70289 | 29622 ft | 486 kts | 28° |
| 2026-05-04 18:12 | 48.85798 | 9.72835 | 28914 ft | 482 kts | 33° |
| 2026-05-04 18:12 | 48.88460 | 9.75905 | 28221 ft | 478 kts | 41° |
| 2026-05-04 18:12 | 48.90801 | 9.79537 | 27568 ft | 474 kts | 50° |
| 2026-05-04 18:12 | 48.92902 | 9.83478 | 26903 ft | 469 kts | 51° |
| 2026-05-04 18:13 | 48.94936 | 9.87298 | 26363 ft | 464 kts | 51° |
| 2026-05-04 18:13 | 48.96978 | 9.91131 | 25918 ft | 460 kts | 51° |
| 2026-05-04 18:13 | 49.01016 | 9.98706 | 25019 ft | 454 kts | 51° |
| 2026-05-04 18:14 | 49.02999 | 10.02434 | 24598 ft | 451 kts | 51° |
| 2026-05-04 18:14 | 49.04990 | 10.06197 | 24165 ft | 448 kts | 51° |
| 2026-05-04 18:14 | 49.06932 | 10.09881 | 23696 ft | 445 kts | 51° |
| 2026-05-04 18:15 | 49.10790 | 10.17202 | 22647 ft | 439 kts | 51° |
| 2026-05-04 18:15 | 49.14678 | 10.24418 | 21593 ft | 431 kts | 47° |
| 2026-05-04 18:15 | 49.16770 | 10.27684 | 21077 ft | 427 kts | 45° |
| 2026-05-04 18:16 | 49.18852 | 10.30912 | 20590 ft | 423 kts | 45° |
| 2026-05-04 18:16 | 49.20933 | 10.34140 | 20075 ft | 420 kts | 45° |
| 2026-05-04 18:16 | 49.23011 | 10.37366 | 19581 ft | 417 kts | 45° |
| 2026-05-04 18:17 | 49.27073 | 10.43632 | 18615 ft | 410 kts | 45° |
| 2026-05-04 18:17 | 49.29083 | 10.46699 | 18140 ft | 407 kts | 45° |
| 2026-05-04 18:17 | 49.33096 | 10.52809 | 17070 ft | 401 kts | 45° |
| 2026-05-04 18:18 | 49.35056 | 10.55800 | 16556 ft | 397 kts | 45° |
| 2026-05-04 18:18 | 49.37012 | 10.58806 | 16049 ft | 394 kts | 45° |
| 2026-05-04 18:18 | 49.38298 | 10.60798 | 15711 ft | 391 kts | 46° |
| 2026-05-04 18:18 | 49.40016 | 10.63914 | 15224 ft | 388 kts | 56° |
| 2026-05-04 18:19 | 49.42220 | 10.71445 | 14249 ft | 379 kts | 78° |
| 2026-05-04 18:19 | 49.42608 | 10.75422 | 13764 ft | 374 kts | 89° |
| 2026-05-04 18:19 | 49.42534 | 10.79382 | 13237 ft | 368 kts | 99° |
| 2026-05-04 18:20 | 49.42218 | 10.83321 | 12706 ft | 365 kts | 100° |
| 2026-05-04 18:20 | 49.41858 | 10.87152 | 12167 ft | 361 kts | 101° |
| 2026-05-04 18:20 | 49.41472 | 10.90970 | 11750 ft | 354 kts | 102° |
| 2026-05-04 18:20 | 49.41090 | 10.94658 | 11373 ft | 348 kts | 102° |
| 2026-05-04 18:21 | 49.40812 | 10.97368 | 11093 ft | 344 kts | 102° |
| 2026-05-04 18:21 | 49.40451 | 11.00972 | 10753 ft | 329 kts | 102° |
| 2026-05-04 18:21 | 49.40122 | 11.04325 | 10581 ft | 307 kts | 102° |
| 2026-05-04 18:21 | 49.39803 | 11.07572 | 10422 ft | 302 kts | 102° |
| 2026-05-04 18:22 | 49.39489 | 11.10742 | 10199 ft | 300 kts | 102° |
| 2026-05-04 18:22 | 49.39174 | 11.13909 | 9882 ft | 299 kts | 102° |
| 2026-05-04 18:22 | 49.38859 | 11.17058 | 9547 ft | 298 kts | 102° |
| 2026-05-04 18:22 | 49.38538 | 11.20247 | 9199 ft | 297 kts | 102° |
| 2026-05-04 18:23 | 49.38224 | 11.23369 | 8859 ft | 297 kts | 101° |
| 2026-05-04 18:23 | 49.37907 | 11.26536 | 8515 ft | 295 kts | 101° |
| 2026-05-04 18:23 | 49.37597 | 11.29637 | 8196 ft | 293 kts | 101° |
| 2026-05-04 18:23 | 49.37282 | 11.32779 | 7866 ft | 292 kts | 101° |
| 2026-05-04 18:24 | 49.36971 | 11.35840 | 7543 ft | 290 kts | 101° |
| 2026-05-04 18:24 | 49.36662 | 11.38881 | 7218 ft | 288 kts | 100° |
| 2026-05-04 18:24 | 49.36350 | 11.41935 | 6920 ft | 286 kts | 100° |
| 2026-05-04 18:24 | 49.36200 | 11.44969 | 6632 ft | 285 kts | 84° |
| 2026-05-04 18:25 | 49.36861 | 11.47819 | 6337 ft | 287 kts | 57° |
| 2026-05-04 18:25 | 49.38325 | 11.49957 | 6019 ft | 281 kts | 29° |
| 2026-05-04 18:25 | 49.40158 | 11.50927 | 5745 ft | 276 kts | 7° |
| 2026-05-04 18:25 | 49.42047 | 11.50678 | 5496 ft | 275 kts | 343° |
| 2026-05-04 18:26 | 49.43797 | 11.49395 | 5269 ft | 275 kts | 324° |
| 2026-05-04 18:26 | 49.45166 | 11.47375 | 5031 ft | 274 kts | 306° |
| 2026-05-04 18:26 | 49.46066 | 11.44784 | 4831 ft | 276 kts | 288° |
| 2026-05-04 18:26 | 49.46453 | 11.41927 | 4599 ft | 273 kts | 279° |
| 2026-05-04 18:27 | 49.46744 | 11.39031 | 4368 ft | 273 kts | 279° |
| 2026-05-04 18:27 | 49.47030 | 11.36197 | 4151 ft | 262 kts | 279° |
| 2026-05-04 18:27 | 49.47299 | 11.33543 | 4030 ft | 244 kts | 279° |
| 2026-05-04 18:27 | 49.47555 | 11.31010 | 3784 ft | 239 kts | 279° |
| 2026-05-04 18:28 | 49.47807 | 11.28506 | 3474 ft | 232 kts | 279° |
| 2026-05-04 18:28 | 49.48043 | 11.26148 | 3189 ft | 213 kts | 280° |
| 2026-05-04 18:28 | 49.48259 | 11.23997 | 2946 ft | 198 kts | 280° |
| 2026-05-04 18:28 | 49.48463 | 11.21955 | 2694 ft | 186 kts | 281° |
| 2026-05-04 18:29 | 49.48647 | 11.20108 | 2445 ft | 166 kts | 281° |
| 2026-05-04 18:29 | 49.48813 | 11.18446 | 2217 ft | 150 kts | 281° |
| 2026-05-04 18:29 | 49.48968 | 11.16895 | 2017 ft | 142 kts | 281° |
| 2026-05-04 18:29 | 49.49117 | 11.15401 | 1838 ft | 140 kts | 281° |
| 2026-05-04 18:30 | 49.49408 | 11.12473 | 1473 ft | 138 kts | 280° |
| 2026-05-04 18:30 | 49.49546 | 11.11012 | 1296 ft | 135 kts | 280° |
| 2026-05-04 18:30 | 49.49692 | 11.09587 | 1099 ft | 134 kts | 281° |
| 2026-05-04 18:31 | 49.49830 | 11.08230 | 1033 ft | 110 kts | 281° |
| 2026-05-04 18:31 | 49.49915 | 11.07359 | 1025 ft | 51 kts | 278° |
| 2026-05-04 18:31 | 49.49937 | 11.07090 | 1023 ft | 13 kts | 277° |
| 2026-05-04 18:31 | 49.49873 | 11.07020 | 1022 ft | 14 kts | 166° |
| 2026-05-04 18:32 | 49.49820 | 11.07048 | 1021 ft | 6 kts | 159° |
| 2026-05-04 18:32 | 49.49808 | 11.07055 | 1021 ft | 0 kts | 158° |
| 2026-05-04 18:32 | 49.49807 | 11.07056 | 1021 ft | 1 kts | 158° |
| 2026-05-04 18:32 | 49.49784 | 11.07071 | 1021 ft | 2 kts | 158° |
| 2026-05-04 18:33 | 49.49780 | 11.07073 | 1021 ft | 2 kts | 157° |
| 2026-05-04 18:33 | 49.49747 | 11.07118 | 1022 ft | 10 kts | 116° |
| 2026-05-04 18:33 | 49.49734 | 11.07241 | 1022 ft | 12 kts | 99° |
| 2026-05-04 18:33 | 49.49725 | 11.07331 | 1023 ft | 9 kts | 99° |
| 2026-05-04 18:34 | 49.49714 | 11.07438 | 1021 ft | 11 kts | 99° |
| 2026-05-04 18:34 | 49.49701 | 11.07561 | 1021 ft | 13 kts | 99° |
| 2026-05-04 18:34 | 49.49689 | 11.07687 | 1026 ft | 10 kts | 98° |
| 2026-05-04 18:34 | 49.49654 | 11.07770 | 1024 ft | 10 kts | 164° |
| 2026-05-04 18:35 | 49.49625 | 11.07767 | 1025 ft | 0 kts | 189° |
| 2026-05-04 18:35 | 49.49624 | 11.07767 | 1025 ft | 0 kts | 189° |
| 2026-05-04 18:35 | 49.49620 | 11.07766 | 1026 ft | 3 kts | 188° |
| 2026-05-04 18:36 | 49.49589 | 11.07790 | 1025 ft | 6 kts | 129° |
| 2026-05-04 18:36 | 49.49575 | 11.07867 | 1027 ft | 9 kts | 97° |
| 2026-05-04 18:36 | 49.49568 | 11.07961 | 1028 ft | 10 kts | 97° |
| 2026-05-04 18:36 | 49.49552 | 11.08047 | 1026 ft | 8 kts | 131° |
| 2026-05-04 18:37 | 49.49526 | 11.08054 | 1027 ft | 1 kts | 195° |
| 2026-05-04 18:37 | 49.49513 | 11.08049 | 1026 ft | 3 kts | 192° |
| 2026-05-04 18:37 | 49.49496 | 11.08045 | 1026 ft | 2 kts | 189° |
| 2026-05-04 18:37 | 49.49491 | 11.08043 | 1026 ft | 0 kts | 189° |